createdAt,value
2022-11-08T00:00:02.825Z,15.60
2022-11-08T00:03:08.651Z,17.90
2022-11-08T00:06:31.698Z,14.38
2022-11-08T00:09:54.141Z,16.42
2022-11-08T00:13:16.982Z,13.05
2022-11-08T00:16:20.847Z,16.12
2022-11-08T00:19:25.132Z,15.00
2022-11-08T00:22:31.763Z,16.10
2022-11-08T00:25:35.537Z,11.52
2022-11-08T00:28:38.637Z,14.60
2022-11-08T00:31:41.909Z,13.52
2022-11-08T00:34:45.045Z,14.57
2022-11-08T00:37:48.291Z,12.50
2022-11-08T00:40:51.207Z,12.85
2022-11-08T00:43:54.250Z,13.45
2022-11-08T00:46:57.211Z,12.98
2022-11-08T00:50:00.260Z,14.18
2022-11-08T00:53:03.085Z,15.50
2022-11-08T00:56:10.969Z,12.37
2022-11-08T00:59:16.648Z,12.63
2022-11-08T01:02:19.743Z,12.65
2022-11-08T01:05:23.561Z,12.82
2022-11-08T01:08:26.755Z,13.30
2022-11-08T01:11:29.530Z,16.60
2022-11-08T01:14:32.763Z,16.58
2022-11-08T01:17:35.480Z,16.37
2022-11-08T01:20:48.882Z,15.27
2022-11-08T01:23:52.027Z,16.37
2022-11-08T01:26:55.106Z,15.75
2022-11-08T01:29:59.183Z,21.15
2022-11-08T01:33:02.193Z,13.97
2022-11-08T01:36:10.058Z,15.35
2022-11-08T01:39:13.120Z,14.07
2022-11-08T01:42:15.908Z,14.15
2022-11-08T01:45:56.740Z,19.60
2022-11-08T01:49:01.138Z,16.95
2022-11-08T01:52:23.146Z,16.20
2022-11-08T01:55:29.776Z,14.10
2022-11-08T01:58:35.109Z,15.32
2022-11-08T02:01:38.011Z,13.48
2022-11-08T02:04:42.829Z,15.63
2022-11-08T02:07:46.869Z,12.63
2022-11-08T02:10:52.042Z,15.98
2022-11-08T02:13:55.337Z,14.65
2022-11-08T02:16:58.405Z,16.33
2022-11-08T02:20:01.436Z,20.70
2022-11-08T02:23:22.142Z,19.10
2022-11-08T02:26:29.465Z,12.23
2022-11-08T02:29:34.597Z,16.15
2022-11-08T02:32:39.322Z,13.60
2022-11-08T02:35:43.032Z,12.93
2022-11-08T02:38:48.639Z,9.40
2022-11-08T02:41:53.192Z,14.30
2022-11-08T02:44:55.891Z,17.90
2022-11-08T02:48:00.001Z,24.42
2022-11-08T02:51:02.751Z,20.65
2022-11-08T02:54:05.900Z,18.10
2022-11-08T02:57:08.963Z,20.27
2022-11-08T03:00:12.842Z,15.50
2022-11-08T03:03:15.675Z,16.23
2022-11-08T03:06:18.820Z,16.30
2022-11-08T03:09:21.871Z,16.48
2022-11-08T03:12:25.096Z,18.77
2022-11-08T03:15:28.423Z,16.20
2022-11-08T03:18:31.617Z,15.02
2022-11-08T03:21:36.833Z,17.58
2022-11-08T03:24:41.228Z,16.85
2022-11-08T03:27:43.960Z,14.13
2022-11-08T03:30:52.353Z,16.50
2022-11-08T03:33:55.104Z,14.40
2022-11-08T03:36:59.200Z,14.38
2022-11-08T03:40:01.924Z,16.45
2022-11-08T03:43:05.005Z,15.65
2022-11-08T03:46:07.802Z,15.75
2022-11-08T03:49:10.815Z,15.60
2022-11-08T03:52:13.559Z,17.55
2022-11-08T03:55:18.524Z,18.45
2022-11-08T03:58:21.680Z,18.25
2022-11-08T04:01:24.931Z,15.50
2022-11-08T04:04:28.059Z,15.52
2022-11-08T04:07:30.774Z,16.52
2022-11-08T04:10:34.903Z,14.48
2022-11-08T04:13:56.331Z,15.00
2022-11-08T04:16:59.689Z,15.45
2022-11-08T04:20:37.903Z,17.75
2022-11-08T04:23:40.901Z,16.15
2022-11-08T04:26:43.613Z,15.25
2022-11-08T04:29:46.617Z,16.40
2022-11-08T04:32:49.324Z,16.35
2022-11-08T04:35:53.053Z,13.68
2022-11-08T04:38:56.698Z,13.82
2022-11-08T04:42:02.303Z,14.05
2022-11-08T04:45:05.673Z,16.37
2022-11-08T04:48:10.588Z,20.23
2022-11-08T04:51:17.008Z,25.50
2022-11-08T04:54:20.460Z,21.62
2022-11-08T04:57:23.164Z,18.17
2022-11-08T05:00:26.869Z,18.17
2022-11-08T05:03:30.316Z,23.23
2022-11-08T05:06:33.367Z,25.25
2022-11-08T05:09:36.189Z,23.77
2022-11-08T05:12:39.207Z,28.08
2022-11-08T05:15:41.940Z,24.25
2022-11-08T05:18:45.232Z,19.70
2022-11-08T05:22:06.590Z,15.68
2022-11-08T05:25:09.554Z,15.88
2022-11-08T05:28:12.856Z,14.90
2022-11-08T05:31:16.142Z,17.35
2022-11-08T05:34:18.893Z,21.02
2022-11-08T05:37:22.290Z,17.20
2022-11-08T05:40:28.247Z,19.77
2022-11-08T05:43:35.274Z,21.35
2022-11-08T05:46:38.144Z,21.20
2022-11-08T05:49:41.213Z,23.92
2022-11-08T05:52:43.909Z,16.98
2022-11-08T05:55:47.468Z,16.67
2022-11-08T05:58:50.284Z,15.63
2022-11-08T06:01:53.443Z,15.57
2022-11-08T06:04:56.942Z,16.67
2022-11-08T06:08:00.239Z,17.65
2022-11-08T06:11:08.990Z,18.75
2022-11-08T06:14:11.721Z,15.55
2022-11-08T06:17:14.821Z,16.92
2022-11-08T06:20:17.631Z,17.23
2022-11-08T06:23:22.473Z,16.17
2022-11-08T06:26:25.425Z,16.45
2022-11-08T06:29:28.474Z,16.42
2022-11-08T06:32:31.262Z,19.30
2022-11-08T06:35:34.612Z,19.58
2022-11-08T06:38:37.520Z,18.25
2022-11-08T06:41:40.780Z,14.02
2022-11-08T06:44:43.617Z,18.77
2022-11-08T06:47:46.919Z,16.70
2022-11-08T06:50:50.901Z,13.20
2022-11-08T06:53:53.992Z,19.05
2022-11-08T06:57:00.391Z,16.30
2022-11-08T07:00:03.878Z,15.20
2022-11-08T07:03:06.793Z,17.08
2022-11-08T07:06:09.908Z,22.60
2022-11-08T07:09:12.749Z,14.93
2022-11-08T07:12:15.765Z,16.37
2022-11-08T07:15:18.522Z,17.62
2022-11-08T07:18:21.630Z,15.80
2022-11-08T07:21:24.527Z,14.70
2022-11-08T07:24:27.934Z,18.83
2022-11-08T07:27:30.622Z,16.55
2022-11-08T07:30:35.855Z,17.30
2022-11-08T07:33:39.944Z,15.63
2022-11-08T07:36:43.232Z,19.05
2022-11-08T07:39:45.980Z,14.87
2022-11-08T07:43:10.477Z,17.52
2022-11-08T07:46:11.842Z,14.02
2022-11-08T07:49:14.826Z,16.23
2022-11-08T07:52:19.031Z,16.40
2022-11-08T07:55:23.917Z,14.20
2022-11-08T07:58:26.759Z,16.98
2022-11-08T08:01:30.926Z,23.62
2022-11-08T08:04:34.778Z,16.62
2022-11-08T08:07:37.904Z,18.58
2022-11-08T08:10:41.275Z,17.73
2022-11-08T08:13:44.343Z,15.20
2022-11-08T08:16:47.448Z,15.40
2022-11-08T08:19:50.201Z,17.23
2022-11-08T08:22:53.588Z,16.87
2022-11-08T08:25:56.428Z,18.67
2022-11-08T08:28:59.501Z,18.55
2022-11-08T08:32:02.215Z,16.85
2022-11-08T08:35:06.748Z,22.90
2022-11-08T08:38:11.777Z,17.37
2022-11-08T08:41:14.804Z,19.50
2022-11-08T08:44:18.726Z,28.08
2022-11-08T08:47:21.774Z,21.33
2022-11-08T08:50:26.361Z,19.62
2022-11-08T08:53:29.347Z,24.42
2022-11-08T09:27:16.555Z,15.05
2022-11-08T09:30:19.489Z,13.40
2022-11-08T09:33:22.072Z,15.45
2022-11-08T09:36:25.254Z,18.42
2022-11-08T09:39:27.663Z,14.87
2022-11-08T09:42:33.407Z,18.65
2022-11-08T09:45:46.666Z,14.93
2022-11-08T09:48:50.004Z,15.40
2022-11-08T09:51:52.731Z,15.77
2022-11-08T09:55:30.816Z,12.55
2022-11-08T09:58:41.242Z,13.45
2022-11-08T10:01:44.130Z,13.27
2022-11-08T10:05:01.208Z,14.68
2022-11-08T10:08:09.777Z,13.95
2022-11-08T10:11:12.356Z,14.02
2022-11-08T10:14:29.733Z,15.13
2022-11-08T10:17:35.271Z,14.55
2022-11-08T10:20:43.794Z,14.27
2022-11-08T10:23:59.167Z,12.90
2022-11-08T10:27:03.533Z,11.32
2022-11-08T10:30:17.957Z,14.57
2022-11-08T10:33:31.873Z,16.60
2022-11-08T10:36:58.303Z,17.65
2022-11-08T10:40:05.572Z,16.50
2022-11-08T10:43:15.002Z,16.75
2022-11-08T10:46:38.032Z,16.40
2022-11-08T10:49:42.863Z,14.48
2022-11-08T10:52:59.216Z,15.27
2022-11-08T10:56:04.578Z,15.25
2022-11-08T10:59:29.075Z,16.90
2022-11-08T11:02:35.665Z,14.57
2022-11-08T11:05:42.288Z,13.45
2022-11-08T11:09:00.704Z,14.95
2022-11-08T11:12:07.842Z,13.90
2022-11-08T11:15:15.558Z,14.13
2022-11-08T11:18:25.701Z,13.45
2022-11-08T11:21:35.542Z,15.95
2022-11-08T11:24:48.106Z,16.12
2022-11-08T11:27:56.911Z,12.13
2022-11-08T11:31:02.463Z,13.77
2022-11-08T11:34:17.448Z,13.05
2022-11-08T11:37:29.568Z,15.38
2022-11-08T11:40:40.827Z,13.70
2022-11-08T11:43:56.403Z,14.23
2022-11-08T11:47:24.137Z,16.65
2022-11-08T11:50:37.134Z,14.52
2022-11-08T11:53:47.504Z,14.98
2022-11-08T11:56:58.114Z,12.48
2022-11-08T12:00:10.546Z,13.05
2022-11-08T12:03:40.798Z,16.10
2022-11-08T12:07:04.666Z,11.80
2022-11-08T12:10:25.766Z,13.88
2022-11-08T12:13:40.759Z,11.73
2022-11-08T12:16:52.558Z,17.85
2022-11-08T12:20:34.821Z,14.00
2022-11-08T12:23:48.025Z,13.68
2022-11-08T12:26:57.214Z,14.52
2022-11-08T12:30:09.135Z,14.00
2022-11-08T12:33:38.418Z,15.43
2022-11-08T12:36:54.257Z,14.52
2022-11-08T12:40:04.100Z,15.18
2022-11-08T12:43:16.289Z,14.07
2022-11-08T12:46:21.110Z,17.60
2022-11-08T12:53:44.636Z,18.75
2022-11-08T12:56:49.001Z,15.18
2022-11-08T12:59:59.457Z,16.58
2022-11-08T13:03:11.372Z,19.37
2022-11-08T13:06:36.301Z,18.37
2022-11-08T13:09:45.122Z,16.60
2022-11-08T13:13:25.800Z,18.60
2022-11-08T13:16:35.142Z,19.48
2022-11-08T13:19:47.383Z,21.62
2022-11-08T13:23:00.676Z,22.17
2022-11-08T13:26:21.340Z,20.92
2022-11-08T13:29:27.518Z,22.50
2022-11-08T13:32:52.825Z,21.45
2022-11-08T13:36:09.034Z,22.40
2022-11-08T13:39:27.248Z,20.35
2022-11-08T13:42:35.979Z,22.37
2022-11-08T13:45:39.008Z,18.92
2022-11-08T13:48:42.225Z,27.02
2022-11-08T13:51:46.281Z,19.65
2022-11-08T13:54:50.681Z,22.57
2022-11-08T14:01:08.159Z,20.83
2022-11-08T14:04:26.524Z,22.80
2022-11-08T14:07:44.928Z,22.20
2022-11-08T14:11:14.075Z,25.00
2022-11-08T14:15:05.467Z,23.42
2022-11-08T14:18:26.886Z,21.98
2022-11-08T14:21:29.610Z,21.12
2022-11-08T14:24:36.775Z,25.25
2022-11-08T14:27:41.061Z,24.00
2022-11-08T14:33:55.721Z,20.95
2022-11-08T14:36:59.280Z,24.52
2022-11-08T14:40:02.088Z,23.33
2022-11-08T14:43:05.080Z,22.35
2022-11-08T14:46:21.336Z,18.42
2022-11-08T14:49:36.590Z,18.70
2022-11-08T14:55:42.871Z,24.48
2022-11-08T14:58:47.006Z,20.85
2022-11-08T15:01:50.198Z,20.37
2022-11-08T15:04:54.114Z,21.62
2022-11-08T15:08:02.539Z,22.02
2022-11-08T15:11:12.310Z,28.50
2022-11-08T15:14:21.324Z,28.33
2022-11-08T15:17:31.569Z,26.60
2022-11-08T15:20:34.818Z,24.20
2022-11-08T15:23:44.737Z,34.97
2022-11-08T15:27:07.810Z,34.72
2022-11-08T15:30:16.569Z,26.17
2022-11-08T15:33:37.454Z,29.40
2022-11-08T15:36:40.954Z,28.08
2022-11-08T15:39:44.613Z,30.33
2022-11-08T15:43:04.047Z,25.65
2022-11-08T15:46:36.858Z,25.70
2022-11-08T15:49:40.057Z,27.83
2022-11-08T15:52:50.854Z,30.73
2022-11-08T15:56:05.247Z,33.75
2022-11-08T15:59:20.878Z,29.45
2022-11-08T16:02:25.833Z,33.42
2022-11-08T16:05:34.313Z,36.40
2022-11-08T16:08:37.427Z,36.95
2022-11-08T16:11:42.146Z,30.85
2022-11-08T16:14:45.706Z,30.42
2022-11-08T16:17:49.047Z,33.08
2022-11-08T16:20:51.999Z,32.80
2022-11-08T16:23:55.597Z,32.60
2022-11-08T16:27:01.585Z,34.08
2022-11-08T16:30:18.048Z,35.58
2022-11-08T16:33:25.744Z,31.25
2022-11-08T16:36:29.574Z,31.35
2022-11-08T16:39:32.916Z,34.28
2022-11-08T16:42:36.501Z,29.37
2022-11-08T16:46:09.450Z,33.70
2022-11-08T16:49:05.950Z,46.10
2022-11-08T16:52:11.960Z,28.77
2022-11-08T16:55:18.212Z,29.90
2022-11-08T16:58:21.374Z,33.00
2022-11-08T17:01:31.851Z,33.43
2022-11-08T17:04:35.057Z,34.22
2022-11-08T17:07:39.406Z,36.42
2022-11-08T17:10:42.634Z,36.80
2022-11-08T17:13:47.374Z,34.65
2022-11-08T17:16:54.479Z,35.08
2022-11-08T17:19:58.446Z,38.10
2022-11-08T17:23:03.535Z,35.78
2022-11-08T17:26:08.987Z,38.30
2022-11-08T17:32:15.448Z,36.63
2022-11-08T17:35:18.947Z,44.10
2022-11-08T17:38:22.587Z,34.00
2022-11-08T17:41:26.236Z,39.17
2022-11-08T17:44:33.383Z,28.77
2022-11-08T17:47:37.213Z,41.50
2022-11-08T17:50:42.045Z,36.95
2022-11-08T17:53:45.585Z,38.03
2022-11-08T17:56:49.761Z,33.40
2022-11-08T17:59:53.174Z,30.83
2022-11-08T18:02:56.868Z,32.72
2022-11-08T18:06:02.274Z,35.05
2022-11-08T18:09:06.431Z,34.42
2022-11-08T18:12:10.211Z,33.83
2022-11-08T18:15:14.320Z,33.58
2022-11-08T18:18:19.396Z,34.97
2022-11-08T18:21:24.980Z,29.17
2022-11-08T18:24:28.393Z,29.65
2022-11-08T18:27:31.901Z,31.87
2022-11-08T18:30:35.586Z,28.45
2022-11-08T18:33:39.879Z,33.22
2022-11-08T18:36:43.362Z,29.20
2022-11-08T18:39:47.841Z,54.70
2022-11-08T18:42:52.848Z,39.50
2022-11-08T18:45:56.287Z,36.85
2022-11-08T18:49:01.384Z,39.92
2022-11-08T18:52:05.420Z,36.33
2022-11-08T18:55:10.252Z,35.70
2022-11-08T18:58:16.032Z,33.90
2022-11-08T19:01:21.101Z,34.42
2022-11-08T19:07:32.277Z,34.25
2022-11-08T19:10:39.009Z,38.42
2022-11-08T19:13:43.279Z,39.83
2022-11-08T19:16:50.956Z,46.92
2022-11-08T19:19:54.516Z,40.08
2022-11-08T19:22:59.001Z,58.05
2022-11-08T19:26:05.857Z,44.95
2022-11-08T19:29:11.390Z,43.72
2022-11-08T19:32:15.507Z,36.95
2022-11-08T19:35:19.534Z,35.88
2022-11-08T19:38:24.756Z,42.20
2022-11-08T19:41:29.572Z,32.38
2022-11-08T19:44:33.373Z,36.05
2022-11-08T19:47:39.186Z,35.25
2022-11-08T19:50:46.595Z,33.72
2022-11-08T19:53:56.420Z,34.92
2022-11-08T19:57:04.776Z,35.65
2022-11-08T20:00:10.991Z,36.40
2022-11-08T20:03:15.606Z,31.65
2022-11-08T20:06:21.199Z,35.58
2022-11-08T20:12:34.574Z,36.20
2022-11-08T20:15:37.996Z,32.15
2022-11-08T20:18:42.709Z,37.20
2022-11-08T20:21:47.917Z,40.37
2022-11-08T20:24:53.202Z,35.72
2022-11-08T20:31:09.868Z,31.52
2022-11-08T20:34:15.668Z,36.28
2022-11-08T20:37:19.532Z,42.17
2022-11-08T20:40:23.088Z,42.67
2022-11-08T20:43:28.035Z,38.80
2022-11-08T20:46:35.171Z,37.25
2022-11-08T20:49:38.838Z,34.03
2022-11-08T20:52:43.491Z,35.75
2022-11-08T20:55:47.144Z,50.30
2022-11-08T20:58:51.801Z,42.67
2022-11-08T21:01:56.948Z,37.08
2022-11-08T21:05:00.292Z,32.70
2022-11-08T21:08:54.051Z,33.67
2022-11-08T21:11:28.129Z,32.53
2022-11-08T21:14:31.971Z,35.10
2022-11-08T21:17:35.680Z,35.80
2022-11-08T21:20:39.542Z,37.20
2022-11-08T21:23:45.506Z,36.85
2022-11-08T21:26:48.796Z,34.20
2022-11-08T21:29:52.080Z,38.30
2022-11-08T21:32:56.799Z,39.28
2022-11-08T21:36:00.726Z,36.97
2022-11-08T21:39:04.771Z,41.60
2022-11-08T21:45:12.271Z,40.40
2022-11-08T21:48:16.621Z,41.37
2022-11-08T21:51:20.281Z,55.83
2022-11-08T21:54:23.771Z,54.25
2022-11-08T21:57:27.001Z,55.10
2022-11-08T22:00:30.429Z,46.47
2022-11-08T22:03:34.704Z,48.97
2022-11-08T22:06:37.533Z,54.42
2022-11-08T22:09:40.657Z,55.47
2022-11-08T22:12:43.479Z,49.78
2022-11-08T22:15:46.580Z,43.95
2022-11-08T22:19:06.270Z,50.95
2022-11-08T22:22:09.976Z,41.08
2022-11-08T22:25:12.982Z,46.47
2022-11-08T22:28:16.481Z,42.42
2022-11-08T22:31:19.769Z,42.53
2022-11-08T22:34:23.012Z,47.35
2022-11-08T22:37:25.835Z,45.53
2022-11-08T22:40:29.624Z,39.58
2022-11-08T22:43:36.341Z,47.67
2022-11-08T22:46:42.300Z,41.05
2022-11-08T22:49:46.654Z,51.28
2022-11-08T22:52:49.910Z,50.78
2022-11-08T22:55:53.229Z,49.22
2022-11-08T22:58:56.377Z,47.00
2022-11-08T23:01:59.201Z,45.95
2022-11-08T23:05:02.420Z,45.15
2022-11-08T23:08:05.575Z,43.15
2022-11-08T23:11:27.908Z,44.40
2022-11-08T23:14:50.165Z,35.95
2022-11-08T23:17:53.290Z,37.90
2022-11-08T23:21:14.903Z,43.50
2022-11-08T23:24:21.972Z,35.33
2022-11-08T23:27:43.929Z,38.80
2022-11-08T23:31:05.632Z,41.45
2022-11-08T23:34:08.432Z,39.45
2022-11-08T23:37:12.577Z,37.95
2022-11-08T23:40:34.945Z,38.72
2022-11-08T23:43:56.957Z,40.72
2022-11-08T23:47:01.327Z,40.83
2022-11-08T23:50:05.968Z,42.65
2022-11-08T23:53:08.653Z,45.87
2022-11-08T23:56:20.574Z,38.35
2022-11-08T23:59:23.272Z,39.55
